Terminal Aerodrome Forecast
Issued by NWS

Home | Current Version | Previous Version | Text Only | Print | Product List | Glossary On
Versions: 1 2 3 4 5 6 7 8 9 10 11 12 13 14 15 16 17
551
FTUS43 KABR 222215 AAA
TAFMBG
TAF AMD
KMBG 222215Z 2222/2318 17013G21KT P6SM SKC
     FM230200 17009KT P6SM FEW250
     FM231400 09004KT P6SM SCT250=

USA.gov is the U.S. government's official web portal to all federal, state and local government web resources and services.